createdAt,value
2023-03-30T07:13:25.623Z,49.95
2023-03-30T07:14:25.644Z,52.53
2023-03-30T07:15:25.130Z,51.72
2023-03-30T07:16:25.178Z,48.98
2023-03-30T07:17:26.899Z,48.98
2023-03-30T07:18:26.163Z,51.56
2023-03-30T07:19:25.097Z,50.92
2023-03-30T07:20:24.996Z,53.17
2023-03-30T07:21:25.064Z,50.43
2023-03-30T07:22:25.033Z,48.98
2023-03-30T07:23:25.054Z,51.24
2023-03-30T07:24:25.025Z,52.37
2023-03-30T07:25:25.104Z,50.11
2023-03-30T07:26:25.017Z,50.60
2023-03-30T07:27:25.549Z,52.05
2023-03-30T07:28:26.094Z,52.37
2023-03-30T07:29:24.966Z,52.53
2023-03-30T07:30:24.953Z,51.88
2023-03-30T07:31:25.020Z,50.11
2023-03-30T07:32:25.186Z,50.76
2023-03-30T07:33:24.997Z,49.15
2023-03-30T07:34:24.938Z,51.40
2023-03-30T07:35:24.956Z,52.21
2023-03-30T07:36:25.043Z,51.72
2023-03-30T07:37:24.945Z,49.95
2023-03-30T07:38:24.970Z,51.72
2023-03-30T07:39:24.907Z,52.37
2023-03-30T07:40:25.066Z,52.85
2023-03-30T07:41:24.891Z,51.08
2023-03-30T07:42:24.945Z,50.92
2023-03-30T07:43:24.900Z,51.24
2023-03-30T07:44:24.869Z,50.27
2023-03-30T07:45:24.947Z,49.15
2023-03-30T07:46:24.965Z,53.98
2023-03-30T07:47:24.849Z,51.56
2023-03-30T07:48:24.819Z,51.08
2023-03-30T07:49:24.843Z,50.60
2023-03-30T07:50:24.896Z,48.98
2023-03-30T07:51:25.935Z,50.27
2023-03-30T07:52:24.749Z,50.92
2023-03-30T07:53:24.861Z,50.76
2023-03-30T07:54:24.826Z,53.01
2023-03-30T07:55:24.761Z,50.60
2023-03-30T07:56:24.800Z,48.82
2023-03-30T07:57:24.854Z,48.02
2023-03-30T07:58:24.809Z,47.37
2023-03-30T07:59:24.809Z,48.18
2023-03-30T08:00:24.748Z,47.53
2023-03-30T08:01:24.735Z,48.18
2023-03-30T08:02:24.768Z,49.79
2023-03-30T08:03:24.915Z,50.60
2023-03-30T08:04:26.404Z,50.76
2023-03-30T08:05:25.738Z,47.53
2023-03-30T08:06:24.713Z,50.60
2023-03-30T08:07:24.694Z,49.31
2023-03-30T08:08:24.816Z,49.47
2023-03-30T08:09:24.686Z,50.11
2023-03-30T08:10:24.665Z,50.27
2023-03-30T08:11:24.721Z,48.66
2023-03-30T08:12:24.725Z,47.70
2023-03-30T08:13:24.735Z,48.18
2023-03-30T08:14:24.649Z,51.08
2023-03-30T08:15:24.637Z,49.47
2023-03-30T08:16:24.661Z,48.82
2023-03-30T08:17:24.711Z,50.43
2023-03-30T08:18:26.452Z,49.63
2023-03-30T08:19:24.619Z,51.08
2023-03-30T08:20:24.605Z,50.11
2023-03-30T08:21:24.604Z,50.92
2023-03-30T08:22:24.609Z,48.66
2023-03-30T08:23:24.650Z,49.95
2023-03-30T08:24:24.631Z,48.02
2023-03-30T08:25:24.580Z,48.50
2023-03-30T08:26:24.574Z,49.63
2023-03-30T08:27:24.629Z,53.01
2023-03-30T08:28:24.580Z,50.27
2023-03-30T08:29:24.535Z,49.95
2023-03-30T08:30:24.610Z,49.15
2023-03-30T08:31:24.619Z,49.79
2023-03-30T08:32:24.634Z,51.72
2023-03-30T08:33:24.555Z,50.43
2023-03-30T08:34:24.504Z,48.66
2023-03-30T08:35:24.488Z,49.31
2023-03-30T08:36:24.505Z,48.66
2023-03-30T08:37:24.516Z,49.63
2023-03-30T08:38:24.567Z,48.66
2023-03-30T08:39:24.477Z,48.50
2023-03-30T08:40:24.491Z,50.76
2023-03-30T08:41:24.485Z,48.82
2023-03-30T08:42:24.499Z,49.15
2023-03-30T08:43:24.493Z,50.27
2023-03-30T08:44:24.550Z,50.76
2023-03-30T08:45:24.504Z,50.27
2023-03-30T08:46:24.559Z,52.37
2023-03-30T08:47:24.429Z,49.63
2023-03-30T08:48:24.445Z,48.50
2023-03-30T08:49:24.491Z,49.63
2023-03-30T08:50:24.492Z,50.60
2023-03-30T08:51:24.415Z,50.43
2023-03-30T08:52:24.387Z,50.11
2023-03-30T08:53:24.405Z,48.82
2023-03-30T08:54:24.333Z,50.76
2023-03-30T08:55:24.500Z,51.72
2023-03-30T08:56:24.409Z,48.02
2023-03-30T08:57:24.414Z,48.18
2023-03-30T08:58:24.358Z,50.76
2023-03-30T08:59:24.436Z,49.79
2023-03-30T09:00:24.313Z,49.15
2023-03-30T09:01:24.423Z,49.79
2023-03-30T09:02:24.284Z,50.60
2023-03-30T09:03:24.338Z,49.31
2023-03-30T09:04:24.281Z,49.79
2023-03-30T09:05:24.328Z,49.79
2023-03-30T09:06:24.350Z,49.15
2023-03-30T09:07:24.293Z,50.60
2023-03-30T09:08:24.334Z,51.40
2023-03-30T09:09:24.330Z,48.98
2023-03-30T09:10:24.253Z,49.15
2023-03-30T09:11:24.301Z,50.27
2023-03-30T09:12:24.418Z,51.08
2023-03-30T09:13:24.267Z,50.11
2023-03-30T09:14:24.247Z,49.15
2023-03-30T09:15:24.190Z,48.50
2023-03-30T09:16:24.368Z,48.66
2023-03-30T09:17:24.239Z,51.56
2023-03-30T09:18:24.355Z,49.79
2023-03-30T09:19:24.206Z,49.79
2023-03-30T09:20:24.237Z,48.34
2023-03-30T09:21:24.206Z,49.47
2023-03-30T09:22:24.198Z,51.40
2023-03-30T09:23:24.247Z,51.72
2023-03-30T09:24:24.219Z,49.79
2023-03-30T09:25:24.158Z,48.82
2023-03-30T09:26:24.159Z,50.76
2023-03-30T09:27:24.215Z,51.72
2023-03-30T09:28:24.245Z,50.60
2023-03-30T09:29:24.250Z,51.24
2023-03-30T09:30:24.150Z,49.79
2023-03-30T09:31:24.139Z,48.18
2023-03-30T09:32:24.215Z,50.43
2023-03-30T09:33:24.133Z,48.34
2023-03-30T09:34:24.216Z,48.34
2023-03-30T09:35:24.154Z,52.21
2023-03-30T09:36:24.124Z,48.98
2023-03-30T09:37:24.103Z,49.15
2023-03-30T09:38:24.134Z,48.98
2023-03-30T09:39:24.110Z,48.02
2023-03-30T09:40:24.071Z,52.37
2023-03-30T09:41:24.092Z,52.21
2023-03-30T09:42:24.045Z,50.43
2023-03-30T09:43:24.018Z,50.43
2023-03-30T09:44:24.146Z,50.60
2023-03-30T09:45:24.039Z,48.98
2023-03-30T09:46:24.168Z,48.50
2023-03-30T09:47:24.030Z,49.47
2023-03-30T09:48:24.053Z,48.50
2023-03-30T09:49:24.007Z,49.31
2023-03-30T09:50:23.963Z,49.63
2023-03-30T09:51:24.018Z,48.50
2023-03-30T09:52:23.963Z,50.11
2023-03-30T09:53:23.999Z,54.46
2023-03-30T09:54:23.971Z,53.98
2023-03-30T09:55:23.984Z,47.86
2023-03-30T09:56:23.876Z,50.27
2023-03-30T09:57:23.987Z,48.18
2023-03-30T09:58:23.965Z,49.95
2023-03-30T09:59:23.859Z,49.63
2023-03-30T10:00:23.959Z,51.40
2023-03-30T10:01:24.011Z,50.60
2023-03-30T10:02:24.024Z,49.63
2023-03-30T10:03:24.174Z,48.34
2023-03-30T10:04:23.876Z,48.50
2023-03-30T10:05:23.873Z,49.95
2023-03-30T10:06:23.868Z,48.50
2023-03-30T10:07:23.847Z,46.08
2023-03-30T10:08:25.124Z,50.76
2023-03-30T10:09:24.917Z,49.95
2023-03-30T10:10:23.864Z,48.50
2023-03-30T10:11:23.828Z,47.70
2023-03-30T10:12:23.882Z,47.05
2023-03-30T10:13:23.862Z,49.31
2023-03-30T10:14:23.842Z,49.31
2023-03-30T10:15:23.795Z,51.56
2023-03-30T10:16:23.833Z,50.11
2023-03-30T10:17:23.846Z,47.21
2023-03-30T10:18:23.743Z,47.70
2023-03-30T10:19:23.810Z,53.01
2023-03-30T10:20:23.783Z,47.70
2023-03-30T10:21:23.781Z,47.21
2023-03-30T10:22:23.853Z,48.98
2023-03-30T10:23:23.752Z,48.82
2023-03-30T10:24:23.749Z,50.11
2023-03-30T10:25:23.777Z,50.76
2023-03-30T10:26:23.724Z,48.50
2023-03-30T10:27:23.745Z,48.50
2023-03-30T10:28:23.689Z,49.47
2023-03-30T10:29:23.687Z,50.76
2023-03-30T10:30:23.785Z,50.60
2023-03-30T10:31:25.534Z,48.02
2023-03-30T10:32:23.841Z,48.18
2023-03-30T10:33:23.682Z,51.40
2023-03-30T10:34:23.709Z,50.60
2023-03-30T10:35:23.691Z,48.18
2023-03-30T10:36:23.682Z,48.50
2023-03-30T10:37:23.643Z,51.72
2023-03-30T10:38:23.619Z,50.43
2023-03-30T10:39:23.768Z,50.76
2023-03-30T10:40:23.656Z,51.40
2023-03-30T10:41:23.588Z,48.66
2023-03-30T10:42:23.636Z,50.11
2023-03-30T10:43:23.620Z,50.27
2023-03-30T10:44:23.615Z,49.47
2023-03-30T10:45:23.538Z,50.92
2023-03-30T10:46:23.707Z,48.50
2023-03-30T10:47:23.731Z,50.76
2023-03-30T10:48:23.602Z,50.43
2023-03-30T10:49:23.609Z,51.72
2023-03-30T10:50:23.508Z,49.47
2023-03-30T10:51:23.541Z,51.72
2023-03-30T10:52:23.539Z,50.27
2023-03-30T10:53:23.509Z,52.05
2023-03-30T10:54:23.564Z,51.24
2023-03-30T10:55:23.494Z,51.72
2023-03-30T10:56:23.594Z,51.72
2023-03-30T10:57:23.541Z,52.53
2023-03-30T10:58:23.501Z,50.27
2023-03-30T10:59:23.509Z,48.66
2023-03-30T11:00:23.525Z,50.60
2023-03-30T11:01:23.574Z,51.40
2023-03-30T11:02:23.638Z,52.37
2023-03-30T11:03:23.637Z,50.43
2023-03-30T11:04:24.271Z,50.76
2023-03-30T11:05:24.437Z,51.40
2023-03-30T11:06:23.432Z,48.98
2023-03-30T11:07:23.463Z,48.98
2023-03-30T11:08:23.453Z,50.76
2023-03-30T11:09:23.467Z,49.15
2023-03-30T11:10:23.405Z,50.27
2023-03-30T11:11:23.512Z,50.27
2023-03-30T11:12:23.413Z,52.53
2023-03-30T11:13:23.518Z,51.56
2023-03-30T11:14:23.441Z,53.82
2023-03-30T11:15:23.506Z,52.53
2023-03-30T11:16:23.551Z,53.98
2023-03-30T11:17:23.356Z,55.11
2023-03-30T11:18:23.370Z,54.30
2023-03-30T11:19:23.447Z,56.72
2023-03-30T11:20:23.366Z,56.07
2023-03-30T11:21:23.316Z,57.20
2023-03-30T11:22:23.303Z,59.14
2023-03-30T11:23:23.331Z,59.78
2023-03-30T11:24:23.322Z,60.59
2023-03-30T11:25:23.245Z,57.36
2023-03-30T11:26:23.291Z,57.20
2023-03-30T11:27:23.259Z,57.20
2023-03-30T11:28:23.265Z,54.30
2023-03-30T11:29:23.313Z,54.62
2023-03-30T11:30:23.252Z,54.46
2023-03-30T11:31:23.273Z,53.01
2023-03-30T11:32:23.271Z,53.50
2023-03-30T11:33:23.220Z,53.01
2023-03-30T11:34:23.261Z,50.76
2023-03-30T11:35:23.228Z,53.01
2023-03-30T11:36:23.242Z,54.30
2023-03-30T11:37:23.173Z,53.01
2023-03-30T11:38:23.178Z,50.92
2023-03-30T11:39:31.596Z,52.69
2023-03-30T11:40:26.872Z,52.05
2023-03-30T11:41:24.140Z,52.69
2023-03-30T11:42:23.183Z,52.53
2023-03-30T11:43:23.143Z,49.63
2023-03-30T11:44:23.179Z,51.56
2023-03-30T11:45:23.125Z,52.69
2023-03-30T11:46:23.152Z,52.53
2023-03-30T11:47:24.112Z,51.08
2023-03-30T11:48:23.113Z,51.56
2023-03-30T11:49:23.160Z,53.66
2023-03-30T11:50:23.149Z,54.14
2023-03-30T11:51:23.125Z,52.21
2023-03-30T11:52:23.188Z,54.14
2023-03-30T11:53:23.058Z,55.27
2023-03-30T11:54:23.072Z,59.30
2023-03-30T11:55:23.059Z,55.11
2023-03-30T11:56:24.519Z,55.59
2023-03-30T11:57:23.072Z,54.46
2023-03-30T11:58:23.039Z,54.14
2023-03-30T11:59:23.101Z,53.01
2023-03-30T12:00:23.059Z,52.85
2023-03-30T12:01:23.007Z,54.62
2023-03-30T12:02:23.098Z,53.01
2023-03-30T12:03:23.208Z,50.27
2023-03-30T12:04:23.081Z,50.76
2023-03-30T12:05:22.990Z,52.05
2023-03-30T12:06:23.006Z,50.27
2023-03-30T12:07:22.973Z,50.76
2023-03-30T12:08:22.977Z,51.72
2023-03-30T12:09:22.986Z,52.21
2023-03-30T12:10:22.929Z,53.50
2023-03-30T12:11:22.954Z,54.30
2023-03-30T12:12:22.955Z,52.69
2023-03-30T12:13:22.933Z,52.05
2023-03-30T12:14:22.950Z,53.82
2023-03-30T12:15:22.931Z,52.37
2023-03-30T12:16:22.975Z,50.76
2023-03-30T12:17:22.975Z,51.88
2023-03-30T12:18:22.893Z,53.50
2023-03-30T12:19:22.897Z,52.69
2023-03-30T12:20:22.904Z,54.14
2023-03-30T12:21:22.870Z,51.72
2023-03-30T12:22:22.915Z,51.72
2023-03-30T12:23:22.843Z,51.88
2023-03-30T12:24:22.891Z,53.66
2023-03-30T12:25:22.840Z,51.72
2023-03-30T12:26:22.821Z,52.37
2023-03-30T12:27:22.857Z,52.85
2023-03-30T12:28:22.838Z,52.21
2023-03-30T12:30:00.190Z,54.46
2023-03-30T12:30:24.839Z,51.56
2023-03-30T12:31:22.875Z,50.76
2023-03-30T12:32:22.906Z,50.92
2023-03-30T12:33:22.774Z,49.79
2023-03-30T12:34:22.848Z,48.66
2023-03-30T12:35:22.807Z,52.05
2023-03-30T12:36:22.755Z,51.72
2023-03-30T12:37:22.762Z,51.72
2023-03-30T12:38:22.760Z,51.88
2023-03-30T12:39:22.747Z,51.56
2023-03-30T12:40:23.138Z,51.40
2023-03-30T12:41:22.760Z,51.88
2023-03-30T12:42:22.720Z,50.60
2023-03-30T12:43:22.715Z,52.85
2023-03-30T12:44:22.711Z,52.21
2023-03-30T12:45:22.720Z,53.50
2023-03-30T12:46:22.814Z,52.53
2023-03-30T12:47:22.796Z,52.69
2023-03-30T12:48:22.722Z,53.50
2023-03-30T12:49:22.707Z,52.21
2023-03-30T12:50:22.639Z,50.92
2023-03-30T12:51:22.646Z,51.08
2023-03-30T12:52:22.659Z,51.72
2023-03-30T12:53:22.677Z,52.21
2023-03-30T12:54:22.700Z,51.08
2023-03-30T12:55:22.674Z,51.40
2023-03-30T12:56:22.692Z,51.72
2023-03-30T12:57:22.836Z,50.92
2023-03-30T12:58:22.615Z,51.40
2023-03-30T12:59:23.702Z,50.76
2023-03-30T13:00:22.657Z,51.40
2023-03-30T13:01:22.626Z,50.60
2023-03-30T13:02:22.597Z,51.72
2023-03-30T13:03:22.546Z,51.72
2023-03-30T13:04:24.029Z,49.95
2023-03-30T13:05:23.571Z,49.31
2023-03-30T13:06:22.598Z,50.43
2023-03-30T13:07:22.543Z,50.27
2023-03-30T13:08:22.601Z,51.40
2023-03-30T13:09:22.622Z,50.76
2023-03-30T13:10:22.506Z,51.40
2023-03-30T13:11:22.498Z,51.40
2023-03-30T23:12:17.704Z,42.54
2023-03-30T23:13:17.702Z,42.38
2023-03-30T23:14:17.668Z,43.34
2023-03-30T23:15:17.680Z,42.54
2023-03-30T23:16:17.701Z,41.73
2023-03-30T23:17:17.653Z,42.06
2023-03-30T23:18:17.670Z,42.06
2023-03-30T23:19:17.639Z,42.54
2023-03-30T23:20:17.663Z,43.34
2023-03-30T23:21:17.633Z,42.38
2023-03-30T23:22:17.646Z,42.22
2023-03-30T23:23:17.661Z,41.89
2023-03-30T23:24:17.634Z,41.57
2023-03-30T23:25:17.616Z,42.54
2023-03-30T23:26:17.616Z,44.63
2023-03-30T23:27:17.572Z,46.25
2023-03-30T23:28:17.612Z,46.73
2023-03-30T23:29:17.633Z,43.18
2023-03-30T23:30:17.601Z,44.63
2023-03-30T23:31:17.687Z,44.15
2023-03-30T23:32:17.548Z,45.44
2023-03-30T23:33:17.546Z,42.54
2023-03-30T23:34:17.556Z,43.18
2023-03-30T23:35:17.555Z,42.70
2023-03-30T23:36:17.771Z,42.06
2023-03-30T23:37:17.519Z,42.54
2023-03-30T23:38:17.514Z,44.31
2023-03-30T23:39:17.500Z,42.38
2023-03-30T23:40:17.515Z,42.86
2023-03-30T23:41:17.506Z,42.86
2023-03-30T23:42:17.484Z,45.60
2023-03-30T23:43:17.493Z,45.60
2023-03-30T23:44:17.472Z,42.70
2023-03-30T23:45:17.463Z,42.86
2023-03-30T23:46:17.546Z,44.31
2023-03-30T23:47:17.444Z,44.47
2023-03-30T23:48:17.467Z,42.70
2023-03-30T23:49:17.453Z,45.44
2023-03-30T23:50:17.412Z,45.12
2023-03-30T23:51:17.426Z,42.22
2023-03-30T23:52:17.405Z,42.86
2023-03-30T23:53:17.433Z,43.83
2023-03-30T23:54:17.423Z,44.15
2023-03-30T23:55:17.381Z,43.18
2023-03-30T23:56:17.857Z,42.38
2023-03-30T23:57:17.428Z,43.51
2023-03-30T23:58:17.385Z,43.83
2023-03-30T23:59:17.364Z,42.06
